Time;durP1;ratioP1;P1;durP2;ratioP2;P2;SDS_P1;SDS_P2;PMS_P1;PMS_P2;Temp;Humidity;BMP_temperature;BMP_pressure;BME280_temperature;BME280_humidity;BME280_pressure;Samples;Min_cycle;Max_cycle;Signal;HPM_P1;HPM_P2
2023/01/18 15:20:07;;;;;;;42.53;22.58;;;;;;;4.83;96.34;101351.78;10414497;28;20472;-83
2023/01/18 15:25:25;;;;;;;45.92;22.20;;;;;;;4.90;96.92;101359.13;10352425;28;20540;-91
2023/01/18 15:30:25;;;;;;;34.80;19.30;;;;;;;4.93;96.66;101366.81;10302091;28;20039;-86
2023/01/18 15:35:28;;;;;;;36.40;21.05;;;;;;;4.95;97.09;101362.28;10287023;28;20047;-80
2023/01/18 15:40:31;;;;;;;45.40;23.27;;;;;;;4.79;96.29;101335.34;10285167;28;20077;-78
2023/01/18 15:45:37;;;;;;;46.28;23.02;;;;;;;4.89;96.21;101369.78;10324604;28;20144;-87
2023/01/18 15:50:45;;;;;;;45.80;21.27;;;;;;;4.71;96.46;101337.66;10317442;28;20450;-80
2023/01/18 15:55:50;;;;;;;41.83;22.58;;;;;;;4.78;96.15;101366.06;10301394;28;20549;-79
2023/01/18 16:01:06;;;;;;;34.75;21.55;;;;;;;4.82;96.21;101358.84;10299175;28;20031;-79
2023/01/18 16:06:12;;;;;;;45.53;24.58;;;;;;;4.89;96.55;101377.69;10320627;28;20049;-84
2023/01/18 16:11:29;;;;;;;37.65;21.88;;;;;;;4.77;96.15;101358.31;10314029;28;20413;-79
2023/01/18 16:16:37;;;;;;;42.15;22.65;;;;;;;4.58;96.08;101333.25;10327451;28;20145;-80
2023/01/18 16:21:43;;;;;;;42.35;22.92;;;;;;;4.84;96.13;101385.88;10379829;28;20045;-84
2023/01/18 16:26:45;;;;;;;55.38;26.63;;;;;;;4.66;96.02;101360.81;10378562;28;20045;-80
2023/01/18 16:31:47;;;;;;;47.70;22.20;;;;;;;3.75;95.06;101218.81;10351345;28;20432;-82
2023/01/18 16:36:49;;;;;;;54.08;28.92;;;;;;;4.25;95.67;101310.06;10356021;28;20038;-83
2023/01/18 16:41:53;;;;;;;43.60;22.98;;;;;;;4.58;95.52;101377.97;10352284;28;20096;-83
2023/01/18 16:46:54;;;;;;;41.22;20.45;;;;;;;4.37;95.45;101363.66;10349942;28;20065;-83
2023/01/18 16:51:55;;;;;;;36.80;18.88;;;;;;;4.17;95.09;101345.72;10349089;28;20069;-85
2023/01/18 16:56:55;;;;;;;43.17;19.60;;;;;;;4.01;94.83;101341.47;10352204;28;20430;-84
2023/01/18 17:01:56;;;;;;;50.50;20.25;;;;;;;4.40;95.32;101418.69;10328362;28;20405;-82
2023/01/18 17:06:57;;;;;;;40.90;20.83;;;;;;;4.33;95.34;101414.75;10345644;28;20456;-83
2023/01/18 17:11:58;;;;;;;40.40;23.23;;;;;;;4.31;95.17;101398.25;10348198;28;20090;-83
2023/01/18 17:17:00;;;;;;;38.85;21.88;;;;;;;4.42;95.57;101410.69;10347520;28;20077;-81
2023/01/18 17:22:00;;;;;;;40.42;19.33;;;;;;;4.24;96.05;101399.59;10347739;28;20076;-82
2023/01/18 17:27:01;;;;;;;46.83;21.88;;;;;;;4.35;95.99;101420.78;10349042;28;20145;-81
2023/01/18 17:32:02;;;;;;;37.95;19.75;;;;;;;3.73;95.91;101312.69;10354282;28;20049;-82
2023/01/18 17:37:03;;;;;;;41.72;19.10;;;;;;;4.31;95.48;101409.63;10359422;28;20034;-81
2023/01/18 17:42:04;;;;;;;43.67;22.42;;;;;;;3.62;95.30;101294.97;10332919;28;20057;-82
2023/01/18 17:47:05;;;;;;;45.42;23.63;;;;;;;3.75;96.19;101310.81;10334173;28;20030;-81
2023/01/18 17:52:06;;;;;;;51.97;26.92;;;;;;;4.43;96.85;101428.16;10339514;28;20414;-81
2023/01/18 17:57:07;;;;;;;58.05;29.05;;;;;;;4.40;97.63;101436.25;10353380;28;20053;-81
2023/01/18 18:02:10;;;;;;;48.15;24.48;;;;;;;4.41;96.86;101423.00;10343620;28;20046;-81
2023/01/18 18:07:11;;;;;;;44.88;24.80;;;;;;;4.31;96.86;101409.63;10349112;28;20042;-81
2023/01/18 18:12:11;;;;;;;46.13;25.70;;;;;;;4.17;96.69;101400.94;10357065;28;20394;-82
2023/01/18 18:17:12;;;;;;;47.70;27.55;;;;;;;3.94;96.97;101357.75;10372426;28;20091;-81
2023/01/18 18:22:14;;;;;;;48.95;27.15;;;;;;;3.68;96.83;101323.50;10372376;28;20571;-81
2023/01/18 18:27:15;;;;;;;45.05;25.23;;;;;;;4.19;97.09;101404.31;10373725;28;20041;-82
2023/01/18 18:32:16;;;;;;;59.40;27.90;;;;;;;4.15;97.31;101403.66;10373076;28;20041;-82
2023/01/18 18:37:18;;;;;;;53.80;25.85;;;;;;;3.66;97.56;101313.09;10372723;28;20042;-81
2023/01/18 18:42:19;;;;;;;53.45;27.80;;;;;;;4.17;97.13;101398.31;10372848;28;20184;-81
2023/01/18 18:47:19;;;;;;;52.40;25.80;;;;;;;3.62;97.20;101318.63;10373042;28;20042;-82
2023/01/18 18:52:20;;;;;;;54.00;26.48;;;;;;;3.01;97.13;101222.78;10372568;28;20472;-81
2023/01/18 18:57:21;;;;;;;49.90;28.70;;;;;;;3.67;97.91;101355.97;10372172;28;20042;-82
2023/01/18 19:02:22;;;;;;;57.97;27.40;;;;;;;4.04;97.78;101422.78;10372094;28;20049;-81
2023/01/18 19:07:23;;;;;;;52.42;27.95;;;;;;;4.02;97.93;101422.03;10372188;28;20049;-81
2023/01/18 19:12:24;;;;;;;53.13;29.58;;;;;;;3.90;97.65;101407.06;10372839;28;20038;-80
2023/01/18 19:17:25;;;;;;;52.83;27.52;;;;;;;4.01;97.94;101407.22;10372277;28;20593;-81
2023/01/18 19:22:25;;;;;;;50.60;25.23;;;;;;;3.60;97.74;101354.69;10371683;28;20041;-79
2023/01/18 19:27:26;;;;;;;51.08;25.80;;;;;;;2.69;97.62;101213.38;10368346;28;20057;-79
2023/01/18 19:32:27;;;;;;;50.50;24.23;;;;;;;3.80;98.25;101416.44;10372280;28;20409;-78
2023/01/18 19:37:28;;;;;;;42.92;22.20;;;;;;;3.85;98.01;101404.72;10356993;28;20034;-80
2023/01/18 19:42:29;;;;;;;50.10;24.88;;;;;;;3.77;98.11;101400.88;10345005;28;20046;-80
2023/01/18 19:47:29;;;;;;;50.28;23.40;;;;;;;2.69;97.70;101220.38;10354490;28;20061;-79
2023/01/18 19:52:31;;;;;;;47.50;23.92;;;;;;;3.57;98.45;101368.84;10372422;28;20402;-80
2023/01/18 19:57:31;;;;;;;49.70;24.38;;;;;;;3.32;98.52;101324.06;10371174;28;20049;-79
2023/01/18 20:02:33;;;;;;;48.53;22.77;;;;;;;3.57;98.21;101395.13;10371894;28;20524;-80
2023/01/18 20:07:36;;;;;;;52.75;25.10;;;;;;;3.47;98.78;101380.91;10379051;28;20577;-80
2023/01/18 20:12:37;;;;;;;52.70;25.13;;;;;;;3.59;98.41;101402.91;10378646;28;20041;-80
2023/01/18 20:17:37;;;;;;;46.47;24.40;;;;;;;3.56;98.68;101417.09;10378838;28;20054;-80
2023/01/18 20:22:38;;;;;;;54.13;25.63;;;;;;;3.27;98.91;101365.53;10378363;28;20049;-80
2023/01/18 20:27:39;;;;;;;56.38;25.73;;;;;;;3.47;99.07;101412.41;10377462;28;20099;-81
2023/01/18 20:32:40;;;;;;;49.92;25.13;;;;;;;3.46;99.05;101400.22;10376364;28;20037;-81
2023/01/18 20:37:40;;;;;;;55.17;26.42;;;;;;;3.52;98.96;101420.00;10377807;28;20050;-81
2023/01/18 20:42:41;;;;;;;53.50;25.95;;;;;;;3.05;99.44;101366.00;10376974;28;20050;-80
2023/01/18 20:47:43;;;;;;;48.10;25.85;;;;;;;3.41;99.25;101439.91;10377355;28;20092;-80
2023/01/18 20:52:44;;;;;;;52.20;26.23;;;;;;;3.26;99.76;101417.22;10377434;28;20048;-80
2023/01/18 20:57:49;;;;;;;52.53;25.23;;;;;;;3.01;99.41;101378.47;10378109;28;20042;-80
2023/01/18 21:02:50;;;;;;;45.70;25.77;;;;;;;3.20;99.77;101405.31;10376760;28;20084;-80
2023/01/18 21:07:51;;;;;;;56.97;27.08;;;;;;;3.13;100.00;101419.72;10376575;28;20080;-80
2023/01/18 21:12:51;;;;;;;58.95;25.67;;;;;;;3.17;100.00;101428.25;10376594;28;20121;-81
2023/01/18 21:17:53;;;;;;;51.08;25.73;;;;;;;2.78;100.00;101374.63;10375389;28;20156;-80
2023/01/18 21:22:53;;;;;;;53.47;24.80;;;;;;;2.96;100.00;101412.03;10377116;28;20103;-81
2023/01/18 21:27:56;;;;;;;60.45;25.10;;;;;;;3.15;100.00;101441.50;10376158;28;20548;-80
2023/01/18 21:32:57;;;;;;;59.67;26.40;;;;;;;3.11;100.00;101420.75;10374665;28;20075;-81
2023/01/18 21:38:01;;;;;;;50.45;25.83;;;;;;;2.94;100.00;101406.88;10376155;28;20402;-80
2023/01/18 21:48:22;;;;;;;55.05;26.35;;;;;;;3.16;100.00;101445.81;10374751;28;19924;-81
2023/01/18 21:58:56;;;;;;;56.78;26.88;;;;;;;2.40;100.00;101322.69;10374897;28;20446;-81
2023/01/18 22:09:16;;;;;;;63.15;27.02;;;;;;;2.20;100.00;101294.19;10374808;28;20425;-80
2023/01/18 22:14:17;;;;;;;70.93;27.08;;;;;;;2.80;100.00;101406.88;10374611;28;20046;-81
2023/01/18 22:19:18;;;;;;;57.70;26.75;;;;;;;2.82;100.00;101410.25;10373519;28;20066;-81
2023/01/18 22:24:18;;;;;;;71.32;28.40;;;;;;;2.93;100.00;101436.72;10373578;28;20042;-81
2023/01/18 22:29:19;;;;;;;80.18;28.70;;;;;;;2.84;100.00;101431.16;10373006;28;20049;-82
2023/01/18 22:34:20;;;;;;;69.68;27.40;;;;;;;2.33;100.00;101359.84;10373589;28;20108;-82
2023/01/18 22:39:21;;;;;;;74.00;29.00;;;;;;;2.31;100.00;101374.84;10372738;28;20045;-81
2023/01/18 22:44:21;;;;;;;87.78;29.73;;;;;;;2.50;100.00;101423.50;10372748;28;20046;-82
2023/01/18 22:49:22;;;;;;;80.07;26.98;;;;;;;2.68;100.00;101447.78;10373194;28;20046;-82
2023/01/18 22:54:23;;;;;;;75.45;28.80;;;;;;;2.60;100.00;101438.69;10373397;28;20049;-82
2023/01/18 22:59:24;;;;;;;89.35;28.80;;;;;;;2.82;100.00;101485.53;10372106;28;20144;-82
2023/01/18 23:04:26;;;;;;;92.63;28.77;;;;;;;2.73;100.00;101474.63;10371498;28;20096;-81
2023/01/18 23:09:27;;;;;;;73.53;26.42;;;;;;;2.48;100.00;101425.38;10370874;28;20050;-81
2023/01/18 23:19:47;;;;;;;76.85;27.40;;;;;;;2.38;100.00;101418.97;10372710;28;20058;-82
2023/01/18 23:24:47;;;;;;;75.75;27.40;;;;;;;2.75;100.00;101466.63;10371463;28;20421;-81
2023/01/18 23:29:55;;;;;;;70.32;27.25;;;;;;;2.72;100.00;101472.06;10371014;28;20050;-81
2023/01/18 23:34:56;;;;;;;79.03;26.27;;;;;;;2.71;100.00;101470.38;10372798;28;20100;-82
2023/01/18 23:55:55;;;;;;;75.75;25.55;;;;;;;2.67;100.00;101433.00;10380194;28;20045;-81
